Hamilton, Bermuda
Current Conditions -  °F | °C
As of 11:55 AM on Monday 22 Dec 2014 (Local Time) from TXKF Reporting Station
Broken Clouds Broken Clouds  
Wind Chill: 72°   Ceiling: 11000
Heat Index: 72°   Visibility: 6mi
Dew Point: 61°   Wind: 6mph
Humidity: 69%   Direction: 150°SSE
Pressure: 30.21"   Gusts: NA
Location:  32.3°N, 64.8°W
Report Text: TXKF 221455Z 15005KT 110V170 9999 FEW022 SCT050BKN110 BKN300 22/16 Q1023
Loading
Personal Weather Stations






























Interactive Weather Map New forecast layout! Learn more

10-Day Weather Forecast

Advertisements
Track Severe Weather on mobile